createdAt,value
2018-10-12T00:00:05.792Z,62.27
2018-10-12T00:01:05.778Z,62.41
2018-10-12T00:02:05.801Z,62.71
2018-10-12T00:03:05.759Z,62.38
2018-10-12T00:04:05.745Z,62.48
2018-10-12T00:05:05.736Z,62.38
2018-10-12T00:06:05.717Z,63.08
2018-10-12T00:07:05.741Z,62.91
2018-10-12T00:08:05.702Z,62.91
2018-10-12T00:09:05.692Z,63.71
2018-10-12T00:10:05.680Z,63.82
2018-10-12T00:11:05.660Z,63.11
2018-10-12T00:12:05.833Z,63.95
2018-10-12T00:13:05.639Z,63.11
2018-10-12T00:14:05.635Z,63.24
2018-10-12T00:15:05.690Z,63.34
2018-10-12T00:16:05.601Z,63.11
2018-10-12T00:17:05.766Z,63.21
2018-10-12T00:18:05.702Z,63.62
2018-10-12T00:19:05.735Z,63.85
2018-10-12T00:20:06.202Z,63.45
2018-10-12T00:21:05.793Z,63.65
2018-10-12T00:22:05.568Z,63.31
2018-10-12T00:23:05.700Z,63.31
2018-10-12T00:24:05.720Z,63.45
2018-10-12T00:25:05.585Z,63.65
2018-10-12T00:26:05.601Z,63.62
2018-10-12T00:27:05.791Z,63.85
2018-10-12T00:28:06.858Z,63.14
2018-10-12T00:29:06.126Z,63.85
2018-10-12T00:30:06.056Z,63.75
2018-10-12T00:31:06.090Z,63.75
2018-10-12T00:32:05.599Z,63.75
2018-10-12T00:33:05.502Z,63.45
2018-10-12T00:34:05.399Z,63.65
2018-10-12T00:35:05.431Z,63.85
2018-10-12T00:36:05.400Z,63.45
2018-10-12T00:37:05.478Z,64.25
2018-10-12T00:38:05.472Z,63.34
2018-10-12T00:39:05.338Z,64.15
2018-10-12T00:40:05.363Z,63.75
2018-10-12T00:41:05.348Z,63.45
2018-10-12T00:42:05.365Z,64.15
2018-10-12T00:43:05.348Z,63.85
2018-10-12T00:44:05.308Z,64.05
2018-10-12T00:45:05.319Z,64.05
2018-10-12T00:46:05.320Z,63.65
2018-10-12T00:47:05.309Z,64.15
2018-10-12T00:48:05.275Z,63.45
2018-10-12T00:49:05.256Z,63.82
2018-10-12T00:50:05.260Z,63.31
2018-10-12T00:51:05.282Z,63.82
2018-10-12T00:52:05.209Z,63.21
2018-10-12T00:53:05.167Z,63.51
2018-10-12T00:54:05.253Z,63.51
2018-10-12T00:55:05.244Z,64.02
2018-10-12T00:56:05.213Z,63.85
2018-10-12T00:57:05.729Z,63.92
2018-10-12T00:58:05.276Z,63.82
2018-10-12T00:59:05.104Z,63.42
2018-10-12T01:00:05.371Z,63.01
2018-10-12T01:01:05.167Z,62.78
2018-10-12T01:02:05.334Z,63.01
2018-10-12T01:03:05.669Z,62.81
2018-10-12T01:04:06.128Z,63.11
2018-10-12T01:05:05.619Z,63.92
2018-10-12T01:06:07.881Z,63.24
2018-10-12T01:07:06.211Z,63.45
2018-10-12T01:08:05.211Z,63.71
2018-10-12T01:09:05.473Z,63.71
2018-10-12T01:10:05.132Z,63.31
2018-10-12T01:11:05.048Z,63.62
2018-10-12T01:12:04.983Z,63.92
2018-10-12T01:13:05.060Z,63.42
2018-10-12T01:14:06.271Z,64.12
2018-10-12T01:15:04.999Z,64.15
2018-10-12T01:16:04.992Z,63.95
2018-10-12T01:17:04.941Z,64.15
2018-10-12T01:18:04.989Z,63.95
2018-10-12T01:19:05.044Z,64.65
2018-10-12T01:20:04.850Z,64.35
2018-10-12T01:21:04.940Z,64.52
2018-10-12T01:22:04.849Z,64.15
2018-10-12T01:23:04.915Z,64.25
2018-10-12T01:24:05.427Z,64.75
2018-10-12T01:25:05.046Z,64.86
2018-10-12T01:26:05.792Z,64.25
2018-10-12T01:27:05.033Z,64.98
2018-10-12T01:28:04.801Z,65.09
2018-10-12T01:29:04.753Z,64.78
2018-10-12T01:30:04.733Z,65.69
2018-10-12T01:31:04.754Z,65.39
2018-10-12T01:32:05.613Z,65.19
2018-10-12T01:33:05.104Z,64.95
2018-10-12T01:34:04.725Z,64.69
2018-10-12T01:35:04.830Z,64.35
2018-10-12T01:36:05.025Z,64.58
2018-10-12T01:37:04.800Z,64.89
2018-10-12T01:38:04.765Z,64.65
2018-10-12T01:39:04.631Z,64.98
2018-10-12T01:40:04.623Z,65.09
2018-10-12T01:41:04.636Z,64.78
2018-10-12T01:42:04.594Z,65.16
2018-10-12T01:43:04.593Z,64.98
2018-10-12T01:44:04.572Z,64.98
2018-10-12T01:45:04.565Z,65.09
2018-10-12T01:46:04.579Z,65.19
2018-10-12T01:47:04.537Z,65.49
2018-10-12T01:48:04.528Z,65.69
2018-10-12T01:49:04.519Z,65.69
2018-10-12T01:50:04.508Z,65.39
2018-10-12T01:51:04.527Z,66.09
2018-10-12T01:52:04.486Z,65.69
2018-10-12T01:53:04.478Z,65.69
2018-10-12T01:54:04.459Z,65.89
2018-10-12T01:55:04.454Z,65.89
2018-10-12T01:56:04.437Z,65.92
2018-10-12T01:57:04.445Z,66.09
2018-10-12T01:58:04.419Z,66.13
2018-10-12T01:59:04.398Z,66.22
2018-10-12T02:00:04.395Z,66.19
2018-10-12T02:01:04.384Z,66.33
2018-10-12T02:02:04.387Z,66.50
2018-10-12T02:03:04.361Z,66.39
2018-10-12T02:04:04.347Z,66.63
2018-10-12T02:05:04.333Z,66.63
2018-10-12T02:06:04.319Z,66.73
2018-10-12T02:07:04.334Z,66.66
2018-10-12T02:08:04.303Z,67.07
2018-10-12T02:09:04.283Z,67.36
2018-10-12T02:10:04.336Z,67.77
2018-10-12T02:11:04.265Z,67.67
2018-10-12T02:12:04.273Z,67.67
2018-10-12T02:13:04.241Z,67.67
2018-10-12T02:14:04.225Z,67.27
2018-10-12T02:15:04.222Z,67.67
2018-10-12T02:16:04.201Z,67.57
2018-10-12T02:17:04.223Z,67.27
2018-10-12T02:18:04.183Z,67.27
2018-10-12T02:19:04.174Z,67.36
2018-10-12T02:20:04.161Z,67.03
2018-10-12T02:21:04.154Z,67.36
2018-10-12T02:22:04.156Z,67.36
2018-10-12T02:23:04.132Z,67.57
2018-10-12T02:24:04.110Z,67.16
2018-10-12T02:25:04.107Z,67.47
2018-10-12T02:26:04.094Z,67.43
2018-10-12T02:27:04.102Z,67.13
2018-10-12T02:28:04.071Z,67.47
2018-10-12T02:29:04.060Z,67.27
2018-10-12T02:30:04.051Z,67.47
2018-10-12T02:31:04.033Z,67.57
2018-10-12T02:32:04.058Z,67.57
2018-10-12T02:33:04.007Z,68.10
2018-10-12T02:34:04.003Z,67.87
2018-10-12T02:35:03.988Z,67.77
2018-10-12T02:36:03.981Z,67.57
2018-10-12T02:37:03.965Z,67.84
2018-10-12T02:38:03.975Z,67.47
2018-10-12T02:39:03.947Z,67.16
2018-10-12T02:40:03.931Z,66.93
2018-10-12T02:41:03.921Z,66.73
2018-10-12T02:42:03.915Z,66.42
2018-10-12T02:43:03.921Z,66.33
2018-10-12T02:44:03.896Z,66.39
2018-10-12T02:45:03.877Z,66.33
2018-10-12T02:46:03.866Z,66.30
2018-10-12T02:47:03.849Z,66.09
2018-10-12T02:48:03.881Z,65.49
2018-10-12T02:49:03.827Z,65.39
2018-10-12T02:50:03.822Z,65.59
2018-10-12T02:51:03.800Z,65.26
2018-10-12T02:52:03.795Z,65.79
2018-10-12T02:53:03.783Z,65.29
2018-10-12T02:54:03.787Z,65.49
2018-10-12T02:55:03.764Z,65.49
2018-10-12T02:56:03.747Z,65.59
2018-10-12T02:57:03.732Z,65.82
2018-10-12T02:58:03.724Z,65.79
2018-10-12T02:59:03.737Z,65.89
2018-10-12T03:00:03.702Z,66.09
2018-10-12T03:01:03.685Z,65.99
2018-10-12T03:02:03.679Z,65.79
2018-10-12T03:03:03.659Z,65.92
2018-10-12T03:04:03.687Z,66.02
2018-10-12T03:05:03.643Z,66.39
2018-10-12T03:06:03.625Z,66.53
2018-10-12T03:07:03.622Z,66.60
2018-10-12T03:08:03.607Z,66.60
2018-10-12T03:09:03.592Z,66.73
2018-10-12T03:10:03.603Z,66.83
2018-10-12T03:11:03.572Z,66.39
2018-10-12T03:12:03.566Z,66.39
2018-10-12T03:13:03.553Z,66.50
2018-10-12T03:14:03.535Z,66.33
2018-10-12T03:15:03.547Z,66.19
2018-10-12T03:16:03.519Z,66.09
2018-10-12T03:17:03.506Z,66.19
2018-10-12T03:18:03.493Z,66.22
2018-10-12T03:19:03.480Z,66.09
2018-10-12T03:20:03.469Z,65.79
2018-10-12T03:21:03.483Z,65.39
2018-10-12T03:22:03.450Z,65.56
2018-10-12T03:23:03.428Z,65.49
2018-10-12T03:24:03.421Z,65.89
2018-10-12T03:25:03.412Z,65.89
2018-10-12T03:26:03.399Z,65.89
2018-10-12T03:27:03.410Z,65.79
2018-10-12T03:28:03.370Z,66.19
2018-10-12T03:29:03.368Z,66.39
2018-10-12T03:30:03.365Z,66.53
2018-10-12T03:31:03.345Z,66.53
2018-10-12T03:32:03.346Z,66.30
2018-10-12T03:33:03.316Z,66.42
2018-10-12T03:34:03.308Z,66.42
2018-10-12T03:35:03.296Z,66.42
2018-10-12T03:36:03.282Z,66.63
2018-10-12T03:37:03.300Z,66.70
2018-10-12T03:38:03.262Z,66.73
2018-10-12T03:39:03.247Z,66.73
2018-10-12T03:40:03.239Z,66.73
2018-10-12T03:41:03.222Z,66.73
2018-10-12T03:42:03.235Z,67.13
2018-10-12T03:43:03.210Z,67.03
2018-10-12T03:44:03.189Z,67.13
2018-10-12T03:45:03.182Z,67.03
2018-10-12T03:46:03.172Z,67.13
2018-10-12T03:47:03.185Z,66.63
2018-10-12T03:48:03.149Z,66.63
2018-10-12T03:49:03.128Z,66.83
2018-10-12T03:50:03.124Z,66.63
2018-10-12T03:51:03.112Z,66.63
2018-10-12T03:52:03.203Z,67.13
2018-10-12T03:53:03.092Z,67.03
2018-10-12T03:54:03.082Z,67.23
2018-10-12T03:55:03.061Z,67.77
2018-10-12T03:56:03.053Z,68.07
2018-10-12T03:57:03.067Z,67.97
2018-10-12T03:58:03.026Z,67.97
2018-10-12T03:59:03.024Z,68.17
2018-10-12T04:00:03.010Z,67.87
2018-10-12T04:01:03.001Z,68.41
2018-10-12T04:02:03.003Z,68.51
2018-10-12T04:03:02.974Z,68.61
2018-10-12T04:04:02.959Z,68.61
2018-10-12T04:05:02.954Z,68.41
2018-10-12T04:06:02.941Z,68.91
2018-10-12T04:07:02.952Z,68.91
2018-10-12T04:08:02.919Z,69.52
2018-10-12T04:09:02.902Z,69.52
2018-10-12T04:10:02.890Z,69.42
2018-10-12T04:11:02.887Z,69.45
2018-10-12T04:12:02.898Z,69.75
2018-10-12T04:13:02.859Z,69.65
2018-10-12T04:14:02.848Z,69.75
2018-10-12T04:15:02.838Z,69.45
2018-10-12T04:16:02.831Z,69.24
2018-10-12T04:17:02.832Z,70.15
2018-10-12T04:18:02.808Z,70.36
2018-10-12T04:19:02.786Z,70.69
2018-10-12T04:20:02.786Z,70.09
2018-10-12T04:21:02.770Z,70.69
2018-10-12T04:22:02.783Z,70.66
2018-10-12T04:23:02.753Z,70.39
2018-10-12T04:24:02.737Z,70.19
2018-10-12T04:25:02.722Z,70.39
2018-10-12T04:26:02.716Z,70.29
2018-10-12T04:27:02.721Z,70.29
2018-10-12T04:28:02.688Z,70.89
2018-10-12T04:29:02.680Z,70.79
2018-10-12T04:30:02.671Z,70.89
2018-10-12T04:31:02.653Z,70.89
2018-10-12T04:32:02.665Z,70.39
2018-10-12T04:33:02.637Z,70.79
2018-10-12T04:34:02.615Z,70.79
2018-10-12T04:35:02.610Z,70.79
2018-10-12T04:36:02.598Z,70.79
2018-10-12T04:37:02.614Z,70.89
2018-10-12T04:38:02.580Z,71.20
2018-10-12T04:39:02.560Z,71.20
2018-10-12T04:40:02.561Z,71.10
2018-10-12T04:41:02.539Z,71.20
2018-10-12T04:42:02.556Z,70.89
2018-10-12T04:43:02.519Z,71.23
2018-10-12T04:44:02.511Z,71.00
2018-10-12T04:45:02.492Z,70.93
2018-10-12T04:46:02.480Z,71.03
2018-10-12T04:47:02.482Z,71.23
2018-10-12T04:48:02.484Z,70.59
2018-10-12T04:49:02.448Z,70.79
2018-10-12T04:50:02.435Z,70.79
2018-10-12T04:51:02.431Z,70.79
2018-10-12T04:52:02.409Z,70.29
2018-10-12T04:53:02.430Z,70.89
2018-10-12T04:54:02.391Z,71.00
2018-10-12T04:55:02.381Z,71.00
2018-10-12T04:56:02.367Z,70.79
2018-10-12T04:57:02.359Z,70.69
2018-10-12T04:58:02.362Z,70.79
2018-10-12T04:59:02.338Z,70.79
2018-10-12T05:00:02.320Z,71.00
2018-10-12T05:01:02.321Z,70.79
2018-10-12T05:02:02.297Z,71.20
2018-10-12T05:03:02.309Z,71.13
2018-10-12T05:04:02.274Z,71.40
2018-10-12T05:05:02.265Z,71.03
2018-10-12T05:06:02.257Z,71.64
2018-10-12T05:07:02.235Z,71.84
2018-10-12T05:08:02.256Z,72.17
2018-10-12T05:09:02.211Z,72.14
2018-10-12T05:10:02.206Z,71.94
2018-10-12T05:11:02.195Z,72.58
2018-10-12T05:12:02.186Z,72.88
2018-10-12T05:13:02.194Z,72.48
2018-10-12T05:14:02.156Z,72.68
2018-10-12T05:15:02.150Z,72.99
2018-10-12T05:16:02.132Z,72.88
2018-10-12T05:17:02.125Z,72.58
2018-10-12T05:18:02.131Z,72.78
2018-10-12T05:19:02.103Z,72.48
2018-10-12T05:20:02.084Z,72.78
2018-10-12T05:21:02.082Z,72.78
2018-10-12T05:22:02.161Z,72.88
2018-10-12T05:23:02.074Z,72.88
2018-10-12T05:24:02.037Z,72.78
2018-10-12T05:25:02.036Z,72.78
2018-10-12T05:26:02.024Z,72.58
2018-10-12T05:27:02.007Z,72.78
2018-10-12T05:28:02.038Z,72.68
2018-10-12T05:29:01.992Z,72.78
2018-10-12T05:30:02.054Z,72.68
2018-10-12T05:31:01.959Z,72.58
2018-10-12T05:32:01.944Z,72.78
2018-10-12T05:33:01.961Z,73.39
2018-10-12T05:34:01.931Z,73.32
2018-10-12T05:35:01.917Z,72.99
2018-10-12T05:36:01.929Z,73.08
2018-10-12T05:37:01.892Z,72.99
2018-10-12T05:38:01.906Z,72.58
2018-10-12T05:39:01.868Z,72.81
2018-10-12T05:40:01.866Z,72.88
2018-10-12T05:41:01.838Z,73.52
2018-10-12T05:42:01.832Z,73.43
2018-10-12T05:43:01.846Z,73.22
2018-10-12T05:44:01.808Z,73.19
2018-10-12T05:45:01.798Z,72.78
2018-10-12T05:46:01.784Z,72.99
2018-10-12T05:47:01.777Z,72.78
2018-10-12T05:48:01.787Z,72.68
2018-10-12T05:49:01.779Z,72.68
2018-10-12T05:50:01.731Z,72.68
2018-10-12T05:51:01.729Z,72.58
2018-10-12T05:52:01.714Z,72.58
2018-10-12T05:53:01.722Z,72.99
2018-10-12T05:54:01.685Z,72.58
2018-10-12T05:55:01.684Z,73.49
2018-10-12T05:56:01.669Z,72.58
2018-10-12T05:57:01.653Z,72.58
2018-10-12T05:58:01.663Z,72.99
2018-10-12T05:59:01.639Z,73.08
2018-10-12T06:00:01.633Z,72.58
2018-10-12T06:01:01.603Z,72.68
2018-10-12T06:02:01.593Z,72.04
2018-10-12T06:03:01.613Z,72.14
2018-10-12T06:04:01.589Z,72.55
2018-10-12T06:05:01.569Z,72.78
2018-10-12T06:06:01.548Z,72.78
2018-10-12T06:07:01.541Z,73.39
2018-10-12T06:08:01.549Z,72.99
2018-10-12T06:09:01.517Z,73.19
2018-10-12T06:10:01.549Z,73.19
2018-10-12T06:11:01.494Z,73.19
2018-10-12T06:12:01.484Z,73.19
2018-10-12T06:13:01.495Z,72.88
2018-10-12T06:14:01.456Z,72.99
2018-10-12T06:15:01.456Z,73.08
2018-10-12T06:16:01.490Z,73.08
2018-10-12T06:17:01.430Z,72.99
2018-10-12T06:18:01.432Z,72.78
2018-10-12T06:19:01.401Z,72.55
2018-10-12T06:20:01.958Z,72.64
2018-10-12T06:21:01.384Z,72.75
2018-10-12T06:22:01.359Z,72.85
2018-10-12T06:23:01.380Z,72.75
2018-10-12T06:24:01.337Z,72.85
2018-10-12T06:25:01.335Z,71.94
2018-10-12T06:26:01.315Z,72.85
2018-10-12T06:27:01.313Z,72.55
2018-10-12T06:28:01.316Z,71.91
2018-10-12T06:29:01.292Z,71.00
2018-10-12T06:30:01.278Z,70.96
2018-10-12T06:31:01.266Z,70.26
2018-10-12T06:32:01.257Z,70.79
2018-10-12T06:33:01.331Z,71.10
2018-10-12T06:34:01.232Z,71.84
2018-10-12T06:35:01.217Z,72.14
2018-10-12T06:36:01.203Z,71.40
2018-10-12T06:37:01.198Z,71.20
2018-10-12T06:38:01.210Z,71.40
2018-10-12T06:39:01.167Z,71.84
2018-10-12T06:40:01.159Z,71.73
2018-10-12T06:41:01.294Z,72.00
2018-10-12T06:42:01.141Z,71.80
2018-10-12T06:43:01.145Z,72.04
2018-10-12T06:44:01.111Z,72.14
2018-10-12T06:45:01.104Z,72.14
2018-10-12T06:46:01.088Z,72.14
2018-10-12T06:47:01.083Z,71.50
2018-10-12T06:48:01.084Z,71.50
2018-10-12T06:49:01.055Z,71.50
2018-10-12T06:50:01.043Z,71.40
2018-10-12T06:51:01.035Z,71.80
2018-10-12T06:52:01.027Z,71.30
2018-10-12T06:53:01.028Z,70.89
2018-10-12T06:54:01.040Z,71.20
2018-10-12T06:55:00.991Z,71.50
2018-10-12T06:56:00.977Z,71.20
2018-10-12T06:57:00.962Z,71.17
2018-10-12T06:58:00.980Z,70.96
2018-10-12T06:59:00.945Z,70.96
2018-10-12T07:00:00.960Z,70.73
2018-10-12T07:01:00.922Z,70.96
2018-10-12T07:02:00.906Z,70.42
2018-10-12T07:03:01.005Z,70.36
2018-10-12T07:04:00.889Z,70.62
2018-10-12T07:05:00.939Z,70.62
2018-10-12T07:06:00.863Z,69.59
2018-10-12T07:07:00.848Z,69.48
2018-10-12T07:08:00.855Z,69.55
2018-10-12T07:09:00.833Z,68.74
2018-10-12T07:10:00.820Z,67.57
2018-10-12T07:11:00.800Z,66.63
2018-10-12T07:12:00.840Z,65.26
2018-10-12T07:13:00.805Z,64.63
2018-10-12T07:14:00.824Z,63.62
2018-10-12T07:15:00.753Z,64.86
2018-10-12T07:16:00.747Z,65.30
2018-10-12T07:17:00.736Z,65.09
2018-10-12T07:18:00.747Z,65.50
2018-10-12T07:19:00.710Z,64.76
2018-10-12T07:20:00.700Z,65.16
2018-10-12T07:21:00.694Z,63.62
2018-10-12T07:22:00.680Z,62.86
2018-10-12T07:23:00.681Z,61.27
2018-10-12T07:24:00.656Z,58.68
2018-10-12T07:25:00.636Z,57.75
2018-10-12T07:26:00.689Z,56.52
2018-10-12T07:27:00.624Z,55.87
2018-10-12T07:28:00.624Z,55.11
2018-10-12T07:29:00.599Z,53.56
2018-10-12T07:30:00.610Z,51.45
2018-10-12T07:31:00.570Z,51.40
2018-10-12T07:32:00.561Z,49.23
2018-10-12T07:33:00.571Z,48.94
2018-10-12T07:34:00.535Z,49.01
2018-10-12T07:35:00.522Z,48.52
2018-10-12T07:36:01.076Z,48.11
2018-10-12T07:37:00.522Z,48.41
2018-10-12T07:38:00.519Z,48.69
2018-10-12T07:39:00.478Z,47.17
2018-10-12T07:40:00.502Z,46.76
2018-10-12T07:41:00.465Z,47.25
2018-10-12T07:42:00.473Z,46.76
2018-10-12T07:43:00.475Z,47.25
2018-10-12T07:44:00.465Z,47.23
2018-10-12T07:45:00.452Z,45.92
2018-10-12T07:46:00.440Z,46.24
2018-10-12T07:47:00.388Z,46.22
2018-10-12T07:48:00.481Z,46.42
2018-10-12T07:49:00.404Z,45.62
2018-10-12T07:50:00.388Z,45.32
2018-10-12T07:51:00.382Z,45.30
2018-10-12T07:52:00.340Z,44.78
2018-10-12T07:53:00.414Z,44.41
2018-10-12T07:54:00.348Z,44.19
2018-10-12T07:55:00.337Z,44.05
2018-10-12T07:56:00.293Z,43.95
2018-10-12T07:57:00.275Z,42.44
2018-10-12T07:58:00.346Z,42.22
2018-10-12T07:59:00.288Z,42.84
2018-10-12T08:00:00.309Z,43.46
2018-10-12T08:01:00.269Z,45.52
2018-10-12T08:02:00.254Z,46.58
2018-10-12T08:03:00.265Z,47.40
2018-10-12T08:04:00.195Z,47.72
2018-10-12T08:05:00.219Z,47.28
2018-10-12T08:06:00.186Z,46.86
2018-10-12T08:07:00.163Z,46.06
2018-10-12T08:08:00.183Z,45.64
2018-10-12T08:09:00.146Z,44.90
2018-10-12T08:10:00.135Z,45.50
2018-10-12T08:11:00.121Z,44.56
2018-10-12T08:12:00.108Z,42.27
2018-10-12T08:13:00.129Z,42.43
2018-10-12T08:14:00.227Z,43.65
2018-10-12T08:15:00.074Z,45.03
2018-10-12T08:16:00.065Z,47.60
2018-10-12T08:17:00.062Z,49.23
2018-10-12T08:18:00.071Z,50.73
2018-10-12T08:19:00.034Z,52.07
2018-10-12T08:20:00.026Z,52.79
2018-10-12T08:21:00.053Z,53.52
2018-10-12T08:21:59.994Z,53.52
2018-10-12T08:23:00.015Z,52.34
2018-10-12T08:23:59.972Z,51.72
2018-10-12T08:24:59.963Z,49.73
2018-10-12T08:25:59.958Z,47.45
2018-10-12T08:27:00.002Z,46.02
2018-10-12T08:27:59.959Z,44.27
2018-10-12T08:28:59.916Z,43.99
2018-10-12T08:29:59.906Z,43.99
2018-10-12T08:30:59.902Z,44.07
2018-10-12T08:31:59.882Z,43.87
2018-10-12T08:32:59.911Z,44.78
2018-10-12T08:33:59.868Z,44.05
2018-10-12T08:34:59.858Z,42.86
2018-10-12T08:35:59.852Z,43.48
2018-10-12T08:36:59.834Z,44.29
2018-10-12T08:37:59.824Z,44.67
2018-10-12T08:38:59.826Z,42.35
2018-10-12T08:39:59.795Z,42.92
2018-10-12T08:40:59.786Z,42.62
2018-10-12T08:41:59.776Z,42.72
2018-10-12T08:42:59.762Z,41.91
2018-10-12T08:43:59.769Z,41.39
2018-10-12T08:44:59.747Z,42.08
2018-10-12T08:45:59.733Z,41.79
2018-10-12T08:46:59.722Z,41.57
2018-10-12T08:47:59.714Z,41.46
2018-10-12T08:48:59.715Z,40.27
2018-10-12T08:49:59.692Z,41.79
2018-10-12T08:50:59.678Z,41.16
2018-10-12T08:51:59.669Z,40.05
2018-10-12T08:52:59.651Z,41.30
2018-10-12T08:53:59.682Z,43.63
2018-10-12T08:54:59.631Z,44.27
2018-10-12T08:55:59.625Z,44.45
2018-10-12T08:56:59.618Z,42.43
2018-10-12T08:57:59.598Z,43.04
2018-10-12T08:58:59.613Z,41.89
2018-10-12T08:59:59.584Z,41.36
2018-10-12T09:00:59.563Z,41.16
2018-10-12T09:01:59.553Z,41.61
2018-10-12T09:02:59.749Z,42.43
2018-10-12T09:03:59.556Z,44.05
2018-10-12T09:04:59.522Z,44.37
2018-10-12T09:05:59.515Z,44.24
2018-10-12T09:06:59.500Z,41.89
2018-10-12T09:07:59.494Z,41.87
2018-10-12T09:08:59.501Z,42.80
2018-10-12T09:09:59.541Z,43.75
2018-10-12T09:10:59.453Z,45.12
2018-10-12T09:11:59.451Z,47.45
2018-10-12T09:12:59.431Z,46.76
2018-10-12T09:13:59.441Z,47.55
2018-10-12T09:14:59.418Z,48.17
2018-10-12T09:15:59.405Z,47.23
2018-10-12T09:16:59.389Z,45.92
2018-10-12T09:17:59.380Z,46.12
2018-10-12T09:18:59.392Z,47.23
2018-10-12T09:19:59.363Z,46.71
2018-10-12T09:20:59.343Z,44.35
2018-10-12T09:21:59.342Z,42.88
2018-10-12T09:22:59.325Z,41.43
2018-10-12T09:23:59.342Z,39.84
2018-10-12T09:24:59.312Z,40.11
2018-10-12T09:25:59.288Z,40.53
2018-10-12T09:26:59.280Z,41.65
2018-10-12T09:27:59.266Z,39.09
2018-10-12T09:28:59.288Z,37.89
2018-10-12T09:29:59.252Z,36.95
2018-10-12T09:30:59.231Z,37.23
2018-10-12T09:31:59.232Z,36.54
2018-10-12T09:32:59.212Z,35.52
2018-10-12T09:33:59.227Z,35.41
2018-10-12T09:34:59.192Z,34.51
2018-10-12T09:35:59.184Z,35.57
2018-10-12T09:36:59.227Z,34.06
2018-10-12T09:37:59.158Z,34.28
2018-10-12T09:38:59.171Z,33.80
2018-10-12T09:39:59.142Z,35.42
2018-10-12T09:40:59.135Z,35.55
2018-10-12T09:41:59.117Z,36.05
2018-10-12T09:42:59.128Z,37.54
2018-10-12T09:43:59.122Z,36.26
2018-10-12T09:44:59.090Z,36.44
2018-10-12T09:45:59.081Z,36.42
2018-10-12T09:46:59.072Z,35.64
2018-10-12T09:47:59.051Z,35.62
2018-10-12T09:48:59.076Z,35.23
2018-10-12T09:49:59.035Z,35.42
2018-10-12T09:50:59.025Z,35.85
2018-10-12T09:51:59.013Z,38.01
2018-10-12T09:52:59.005Z,36.47
2018-10-12T09:53:59.013Z,36.42
2018-10-12T09:54:58.978Z,36.87
2018-10-12T09:55:59.107Z,39.23
2018-10-12T09:56:58.958Z,40.07
2018-10-12T09:57:58.947Z,42.84
2018-10-12T09:58:58.966Z,41.69
2018-10-12T09:59:58.933Z,43.04
2018-10-12T10:00:58.916Z,43.85
2018-10-12T10:01:59.009Z,44.27
2018-10-12T10:02:58.891Z,43.65
2018-10-12T10:03:58.912Z,44.17
2018-10-12T10:04:58.873Z,45.23
2018-10-12T10:05:58.868Z,46.31
2018-10-12T10:06:58.851Z,46.73
2018-10-12T10:07:58.976Z,46.88
2018-10-12T10:08:58.866Z,47.38
2018-10-12T10:09:58.823Z,47.89
2018-10-12T10:10:58.809Z,48.81
2018-10-12T10:11:58.793Z,48.94
2018-10-12T10:12:58.785Z,47.55
2018-10-12T10:13:58.849Z,44.81
2018-10-12T10:14:58.760Z,44.24
2018-10-12T10:15:58.759Z,43.43
2018-10-12T10:16:58.739Z,44.56
2018-10-12T10:17:58.735Z,44.15
2018-10-12T10:18:58.741Z,42.82
2018-10-12T10:19:58.707Z,45.16
2018-10-12T10:20:58.706Z,43.04
2018-10-12T10:21:58.693Z,42.58
2018-10-12T10:22:58.671Z,42.29
2018-10-12T10:23:58.685Z,41.77
2018-10-12T10:24:58.693Z,41.57
2018-10-12T10:25:58.648Z,41.16
2018-10-12T10:26:58.629Z,41.46
2018-10-12T10:27:58.627Z,42.08
2018-10-12T10:28:58.634Z,41.77
2018-10-12T10:29:58.596Z,42.52
2018-10-12T10:30:58.588Z,44.56
2018-10-12T10:31:58.575Z,45.60
2018-10-12T10:32:58.572Z,44.24
2018-10-12T10:33:58.580Z,42.07
2018-10-12T10:34:58.543Z,41.69
2018-10-12T10:35:58.542Z,42.88
2018-10-12T10:36:58.526Z,42.19
2018-10-12T10:37:58.516Z,40.43
2018-10-12T10:38:58.583Z,39.09
2018-10-12T10:39:58.486Z,38.09
2018-10-12T10:40:58.485Z,36.44
2018-10-12T10:41:58.466Z,36.60
2018-10-12T10:42:58.456Z,35.62
2018-10-12T10:43:58.450Z,35.72
2018-10-12T10:44:58.460Z,37.01
2018-10-12T10:45:58.424Z,36.30
2018-10-12T10:46:58.416Z,35.99
2018-10-12T10:47:58.409Z,35.58
2018-10-12T10:48:58.394Z,35.21
2018-10-12T10:49:58.406Z,35.64
2018-10-12T10:50:58.370Z,36.34
2018-10-12T10:51:58.363Z,35.91
2018-10-12T10:52:58.350Z,36.22
2018-10-12T10:53:58.344Z,36.29
2018-10-12T10:54:58.347Z,35.00
2018-10-12T10:55:58.323Z,33.79
2018-10-12T10:56:58.304Z,34.47
2018-10-12T10:57:58.295Z,35.25
2018-10-12T10:58:58.283Z,35.47
2018-10-12T10:59:58.297Z,35.41
2018-10-12T11:00:58.402Z,35.58
2018-10-12T11:01:58.252Z,35.19
2018-10-12T11:02:58.250Z,35.27
2018-10-12T11:03:58.237Z,34.41
2018-10-12T11:04:58.245Z,35.66
2018-10-12T11:05:58.216Z,35.19
2018-10-12T11:06:58.206Z,35.62
2018-10-12T11:07:58.198Z,35.82
2018-10-12T11:08:58.177Z,35.10
2018-10-12T11:09:58.192Z,34.98
2018-10-12T11:10:58.158Z,34.59
2018-10-12T11:11:58.145Z,34.24
2018-10-12T11:12:58.216Z,34.18
2018-10-12T11:13:58.125Z,35.00
2018-10-12T11:14:58.144Z,35.31
2018-10-12T11:15:58.102Z,35.82
2018-10-12T11:16:58.216Z,35.24
2018-10-12T11:17:58.087Z,35.52
2018-10-12T11:18:58.070Z,35.23
2018-10-12T11:19:58.091Z,35.39
2018-10-12T11:20:58.049Z,34.80
2018-10-12T11:21:58.040Z,34.00
2018-10-12T11:22:58.037Z,35.31
2018-10-12T11:23:58.017Z,35.19
2018-10-12T11:24:58.037Z,34.88
2018-10-12T11:25:58.005Z,34.21
2018-10-12T11:26:58.098Z,34.51
2018-10-12T11:27:57.985Z,33.82
2018-10-12T11:28:57.963Z,34.20
2018-10-12T11:29:57.991Z,34.77
2018-10-12T11:30:57.943Z,33.58
2018-10-12T11:31:57.945Z,33.43
2018-10-12T11:32:58.094Z,32.52
2018-10-12T11:33:57.919Z,32.24
2018-10-12T11:34:57.932Z,32.65
2018-10-12T11:35:57.890Z,32.65
2018-10-12T11:36:57.890Z,32.65
2018-10-12T11:37:57.873Z,32.24
2018-10-12T11:38:57.864Z,32.14
2018-10-12T11:39:57.877Z,31.92
2018-10-12T11:40:57.844Z,31.02
2018-10-12T11:41:57.994Z,30.39
2018-10-12T11:42:57.825Z,29.92
2018-10-12T11:43:57.811Z,31.41
2018-10-12T11:44:57.836Z,31.56
2018-10-12T11:45:57.791Z,32.34
2018-10-12T11:46:57.777Z,31.36
2018-10-12T11:47:57.763Z,31.05
2018-10-12T11:48:57.761Z,31.33
2018-10-12T11:49:57.774Z,31.25
2018-10-12T11:50:57.732Z,31.93
2018-10-12T11:51:57.777Z,30.76
2018-10-12T11:52:57.718Z,31.43
2018-10-12T11:53:57.699Z,30.26
2018-10-12T11:54:57.719Z,30.96
2018-10-12T11:55:57.679Z,30.34
2018-10-12T11:56:57.677Z,30.00
2018-10-12T11:57:57.661Z,30.16
2018-10-12T11:58:57.652Z,31.93
2018-10-12T11:59:57.668Z,30.26
2018-10-12T12:00:57.655Z,31.05
2018-10-12T12:01:57.625Z,31.05
2018-10-12T12:02:57.607Z,29.95
2018-10-12T12:03:57.603Z,31.25
2018-10-12T12:04:57.610Z,30.86
2018-10-12T12:05:57.581Z,31.57
2018-10-12T12:06:57.569Z,32.16
2018-10-12T12:07:57.559Z,32.09
2018-10-12T12:08:57.546Z,33.72
2018-10-12T12:09:57.557Z,34.01
2018-10-12T12:10:57.527Z,33.22
2018-10-12T12:11:57.519Z,33.72
2018-10-12T12:12:57.507Z,34.66
2018-10-12T12:13:57.597Z,35.26
2018-10-12T12:14:57.504Z,35.74
2018-10-12T12:15:57.530Z,34.64
2018-10-12T12:16:57.462Z,35.34
2018-10-12T12:17:57.448Z,35.52
2018-10-12T12:18:57.446Z,35.46
2018-10-12T12:19:57.448Z,35.06
2018-10-12T12:20:57.426Z,35.44
2018-10-12T12:21:57.408Z,35.28
2018-10-12T12:22:57.395Z,37.08
2018-10-12T12:23:57.392Z,37.41
2018-10-12T12:24:57.398Z,36.72
2018-10-12T12:25:57.369Z,37.01
2018-10-12T12:26:57.351Z,37.49
2018-10-12T12:27:57.342Z,37.01
2018-10-12T12:28:57.329Z,36.47
2018-10-12T12:29:57.342Z,36.65
2018-10-12T12:30:57.315Z,35.34
2018-10-12T12:31:57.300Z,35.23
2018-10-12T12:32:57.293Z,34.03
2018-10-12T12:33:57.287Z,34.74
2018-10-12T12:34:57.319Z,34.80
2018-10-12T12:35:57.537Z,34.23
2018-10-12T12:36:57.242Z,33.82
2018-10-12T12:37:57.237Z,33.98
2018-10-12T12:38:57.228Z,33.36
2018-10-12T12:39:57.231Z,32.35
2018-10-12T12:40:57.208Z,32.42
2018-10-12T12:41:57.197Z,31.13
2018-10-12T12:42:57.179Z,31.12
2018-10-12T12:43:57.169Z,30.42
2018-10-12T12:44:57.192Z,30.34
2018-10-12T12:45:57.149Z,30.34
2018-10-12T12:46:57.137Z,31.16
2018-10-12T12:47:57.213Z,32.29
2018-10-12T12:48:57.669Z,32.87
2018-10-12T12:49:57.129Z,32.09
2018-10-12T12:50:57.092Z,32.48
2018-10-12T12:51:57.080Z,32.46